createdAt,value
2023-05-04T00:00:51.920Z,0
2023-05-04T00:02:01.097Z,0
2023-05-04T00:03:10.262Z,0
2023-05-04T00:04:19.453Z,0
2023-05-04T00:05:28.611Z,0
2023-05-04T00:06:37.785Z,0
2023-05-04T00:07:46.966Z,0
2023-05-04T00:08:56.147Z,0
2023-05-04T00:10:05.303Z,0
2023-05-04T00:11:13.522Z,0
2023-05-04T00:12:21.693Z,0
2023-05-04T00:13:30.861Z,0
2023-05-04T00:14:40.041Z,0
2023-05-04T00:15:49.222Z,0
2023-05-04T00:16:58.383Z,0
2023-05-04T00:18:07.546Z,0
2023-05-04T00:19:16.736Z,0
2023-05-04T00:20:25.937Z,0
2023-05-04T00:21:35.063Z,0
2023-05-04T00:22:44.242Z,0
2023-05-04T00:23:53.424Z,0
2023-05-04T00:25:02.646Z,0
2023-05-04T00:26:11.764Z,0
2023-05-04T00:27:19.948Z,0
2023-05-04T00:28:29.117Z,0
2023-05-04T00:29:38.293Z,0
2023-05-04T00:30:47.478Z,0
2023-05-04T00:31:56.648Z,0
2023-05-04T00:33:05.812Z,0
2023-05-04T00:34:14.976Z,0
2023-05-04T00:35:23.179Z,0
2023-05-04T00:36:31.360Z,0
2023-05-04T00:37:40.550Z,0
2023-05-04T00:38:49.717Z,0
2023-05-04T00:39:58.876Z,0
2023-05-04T00:41:07.078Z,0
2023-05-04T00:42:15.285Z,0
2023-05-04T00:43:24.440Z,0
2023-05-04T00:44:33.608Z,0
2023-05-04T00:45:42.790Z,0
2023-05-04T00:46:52.028Z,0
2023-05-04T00:48:01.193Z,0
2023-05-04T00:49:10.365Z,0
2023-05-04T00:50:19.550Z,0
2023-05-04T00:51:28.718Z,0
2023-05-04T00:52:37.892Z,0
2023-05-04T00:53:47.050Z,0
2023-05-04T00:54:56.230Z,0
2023-05-04T00:56:05.395Z,0
2023-05-04T00:57:13.592Z,0
2023-05-04T00:59:31.931Z,0
2023-05-04T01:00:41.113Z,0
2023-05-04T01:01:50.282Z,0
2023-05-04T01:02:59.447Z,0
2023-05-04T01:04:08.626Z,0
2023-05-04T01:05:17.809Z,0
2023-05-04T01:06:26.005Z,0
2023-05-04T01:07:34.196Z,0
2023-05-04T01:09:52.550Z,0
2023-05-04T01:11:01.706Z,0
2023-05-04T01:12:09.894Z,0
2023-05-04T01:14:27.250Z,0
2023-05-04T01:15:36.437Z,0
2023-05-04T01:16:45.597Z,0
2023-05-04T01:17:54.778Z,0
2023-05-04T01:19:03.941Z,0
2023-05-04T01:20:13.121Z,0
2023-05-04T01:21:22.283Z,0
2023-05-04T01:22:31.462Z,0
2023-05-04T01:23:40.653Z,0
2023-05-04T01:24:49.805Z,0
2023-05-04T01:25:58.992Z,0
2023-05-04T01:27:08.151Z,0
2023-05-04T01:28:16.342Z,0
2023-05-04T01:29:25.539Z,0
2023-05-04T01:30:34.680Z,0
2023-05-04T01:31:43.864Z,0
2023-05-04T01:32:53.027Z,0
2023-05-04T01:34:02.200Z,0
2023-05-04T01:35:11.370Z,0
2023-05-04T01:36:20.551Z,0
2023-05-04T01:37:28.758Z,0
2023-05-04T01:38:36.933Z,0
2023-05-04T01:39:46.097Z,0
2023-05-04T01:40:55.275Z,0
2023-05-04T01:42:04.448Z,0
2023-05-04T01:43:13.625Z,0
2023-05-04T01:44:21.812Z,0
2023-05-04T01:45:30.002Z,0
2023-05-04T01:46:39.173Z,0
2023-05-04T01:47:48.349Z,0
2023-05-04T01:48:57.537Z,0
2023-05-04T01:50:06.687Z,0
2023-05-04T01:51:15.857Z,0
2023-05-04T01:52:25.036Z,0
2023-05-04T01:53:33.224Z,0
2023-05-04T01:54:42.404Z,0
2023-05-04T01:55:51.567Z,0
2023-05-04T01:57:00.746Z,0
2023-05-04T01:58:09.924Z,0
2023-05-04T01:59:19.084Z,0
2023-05-04T02:00:28.258Z,0
2023-05-04T02:01:37.439Z,0
2023-05-04T02:02:46.619Z,0
2023-05-04T02:03:55.788Z,0
2023-05-04T02:05:04.953Z,0
2023-05-04T02:06:14.122Z,0
2023-05-04T02:07:23.306Z,0
2023-05-04T02:08:31.501Z,0
2023-05-04T02:09:39.683Z,0
2023-05-04T02:10:48.853Z,0
2023-05-04T02:11:58.021Z,0
2023-05-04T02:13:07.193Z,0
2023-05-04T02:14:16.384Z,0
2023-05-04T02:15:24.579Z,0
2023-05-04T02:16:33.739Z,0
2023-05-04T02:17:41.930Z,0
2023-05-04T02:18:51.097Z,0
2023-05-04T02:20:00.285Z,0
2023-05-04T02:21:09.453Z,0
2023-05-04T02:22:18.621Z,0
2023-05-04T02:23:27.802Z,0
2023-05-04T02:24:36.975Z,0
2023-05-04T02:25:46.157Z,0
2023-05-04T02:26:55.324Z,0
2023-05-04T02:28:04.483Z,0
2023-05-04T02:29:13.650Z,0
2023-05-04T02:30:22.840Z,0
2023-05-04T02:31:31.992Z,0
2023-05-04T02:32:40.186Z,0
2023-05-04T02:33:49.359Z,0
2023-05-04T02:34:58.537Z,0
2023-05-04T02:36:07.709Z,0
2023-05-04T02:37:16.877Z,0
2023-05-04T02:38:26.063Z,0
2023-05-04T02:39:35.230Z,0
2023-05-04T02:40:44.403Z,0
2023-05-04T02:41:53.574Z,0
2023-05-04T02:43:02.737Z,0
2023-05-04T02:44:11.923Z,0
2023-05-04T02:45:21.128Z,0
2023-05-04T02:46:30.267Z,0
2023-05-04T02:47:38.460Z,0
2023-05-04T02:48:47.620Z,0
2023-05-04T02:49:56.801Z,0
2023-05-04T02:51:06.012Z,0
2023-05-04T02:52:15.146Z,0
2023-05-04T02:53:24.454Z,0
2023-05-04T02:54:33.495Z,0
2023-05-04T02:55:42.697Z,0
2023-05-04T02:56:51.863Z,0
2023-05-04T02:58:01.082Z,0
2023-05-04T02:59:10.190Z,0
2023-05-04T03:00:19.374Z,0
2023-05-04T03:01:27.551Z,0
2023-05-04T03:02:35.735Z,0
2023-05-04T03:03:44.960Z,0
2023-05-04T03:04:54.089Z,0
2023-05-04T03:06:03.258Z,0
2023-05-04T03:07:11.453Z,0
2023-05-04T03:08:19.660Z,0
2023-05-04T03:09:28.807Z,3
2023-05-04T03:10:37.979Z,3
2023-05-04T03:11:47.158Z,3
2023-05-04T03:12:56.336Z,3
2023-05-04T03:14:05.517Z,3
2023-05-04T03:15:14.703Z,3
2023-05-04T03:16:23.855Z,3
2023-05-04T03:19:06.533Z,4
2023-05-04T03:19:51.362Z,0
2023-05-04T03:21:00.549Z,4
2023-05-04T03:22:09.713Z,4
2023-05-04T03:23:17.905Z,4
2023-05-04T03:24:27.083Z,4
2023-05-04T03:25:36.252Z,9
2023-05-04T03:26:45.428Z,1
2023-05-04T03:27:54.647Z,1
2023-05-04T03:29:03.780Z,5
2023-05-04T03:30:12.936Z,5
2023-05-04T03:31:22.114Z,10
2023-05-04T03:32:30.318Z,3
2023-05-04T03:33:38.496Z,6
2023-05-04T03:34:47.664Z,14
2023-05-04T03:35:56.846Z,19
2023-05-04T03:39:24.370Z,11
2023-05-04T03:40:33.536Z,16
2023-05-04T03:41:42.708Z,18
2023-05-04T03:42:50.898Z,22
2023-05-04T03:43:59.094Z,26
2023-05-04T03:45:08.263Z,28
2023-05-04T03:46:17.436Z,34
2023-05-04T03:47:26.611Z,36
2023-05-04T03:49:44.945Z,53
2023-05-04T03:50:54.137Z,63
2023-05-04T03:52:03.300Z,78
2023-05-04T03:53:12.476Z,92
2023-05-04T03:54:21.657Z,131
2023-05-04T03:55:30.825Z,140
2023-05-04T03:56:39.996Z,158
2023-05-04T03:57:49.169Z,165
2023-05-04T03:58:57.353Z,163
2023-05-04T04:00:06.530Z,187
2023-05-04T04:01:15.704Z,204
2023-05-04T04:02:24.885Z,219
2023-05-04T04:03:34.044Z,244
2023-05-04T04:04:43.238Z,268
2023-05-04T04:05:52.389Z,317
2023-05-04T04:07:01.568Z,332
2023-05-04T04:08:09.757Z,365
2023-05-04T04:10:27.117Z,388
2023-05-04T04:11:36.293Z,423
2023-05-04T04:12:45.463Z,462
2023-05-04T04:13:54.630Z,501
2023-05-04T04:15:03.809Z,530
2023-05-04T04:16:12.992Z,554
2023-05-04T04:17:22.210Z,601
2023-05-04T04:18:31.326Z,635
2023-05-04T04:19:40.515Z,669
2023-05-04T04:20:49.663Z,707
2023-05-04T04:21:58.846Z,753
2023-05-04T04:23:08.028Z,782
2023-05-04T04:24:16.205Z,834
2023-05-04T04:25:25.380Z,859
2023-05-04T04:26:34.556Z,919
2023-05-04T04:27:43.727Z,961
2023-05-04T04:28:52.893Z,991
2023-05-04T04:30:02.076Z,1030
2023-05-04T04:31:11.238Z,1077
2023-05-04T04:32:20.417Z,1128
2023-05-04T04:33:28.616Z,1162
2023-05-04T04:34:36.794Z,1192
2023-05-04T04:35:45.975Z,1235
2023-05-04T04:36:55.142Z,1254
2023-05-04T04:38:04.324Z,1293
2023-05-04T04:39:12.555Z,1337
2023-05-04T04:40:20.718Z,1368
2023-05-04T04:41:29.875Z,1368
2023-05-04T04:42:39.053Z,1362
2023-05-04T04:43:48.218Z,1463
2023-05-04T04:44:57.386Z,1465
2023-05-04T04:46:05.579Z,1502
2023-05-04T04:47:13.780Z,1663
2023-05-04T04:48:22.947Z,1699
2023-05-04T04:49:32.120Z,1710
2023-05-04T04:50:41.304Z,1730
2023-05-04T04:51:50.457Z,1723
2023-05-04T04:52:59.642Z,1758
2023-05-04T04:54:08.812Z,1796
2023-05-04T04:55:17.977Z,1841
2023-05-04T04:56:27.151Z,1833
2023-05-04T04:57:36.326Z,1892
2023-05-04T04:58:45.497Z,1853
2023-05-04T04:59:54.655Z,1941
2023-05-04T05:01:03.831Z,1878
2023-05-04T05:02:12.018Z,1828
2023-05-04T05:03:21.229Z,1993
2023-05-04T05:04:30.382Z,1866
2023-05-04T05:05:39.663Z,2004
2023-05-04T05:06:48.727Z,2162
2023-05-04T05:07:57.971Z,2177
2023-05-04T05:09:07.070Z,2020
2023-05-04T05:10:15.299Z,2068
2023-05-04T05:12:33.608Z,2216
2023-05-04T05:13:41.806Z,2178
2023-05-04T05:14:50.967Z,2276
2023-05-04T05:15:59.239Z,2322
2023-05-04T05:18:16.525Z,2313
2023-05-04T05:19:25.699Z,2374
2023-05-04T05:20:34.864Z,2469
2023-05-04T05:21:44.059Z,2535
2023-05-04T05:22:53.261Z,2478
2023-05-04T05:24:02.392Z,2503
2023-05-04T05:25:11.588Z,2547
2023-05-04T05:26:20.745Z,2598
2023-05-04T05:27:29.975Z,2678
2023-05-04T05:28:39.140Z,2778
2023-05-04T05:29:48.238Z,2854
2023-05-04T05:30:57.439Z,2913
2023-05-04T05:32:05.613Z,2933
2023-05-04T05:33:14.782Z,2934
2023-05-04T05:34:23.957Z,3005
2023-05-04T05:35:33.126Z,2892
2023-05-04T05:36:42.306Z,3514
2023-05-04T05:37:51.551Z,3745
2023-05-04T05:39:00.649Z,3326
2023-05-04T05:40:09.873Z,3348
2023-05-04T05:41:18.997Z,3391
2023-05-04T05:42:27.188Z,3016
2023-05-04T05:44:44.556Z,4043
2023-05-04T05:45:52.740Z,3557
2023-05-04T05:47:00.945Z,3552
2023-05-04T05:49:18.283Z,3455
2023-05-04T05:50:27.507Z,4287
2023-05-04T05:51:36.652Z,3820
2023-05-04T05:52:45.814Z,4469
2023-05-04T05:53:54.986Z,5043
2023-05-04T05:55:04.157Z,4722
2023-05-04T05:56:13.333Z,3911
2023-05-04T05:57:22.505Z,4611
2023-05-04T05:59:40.850Z,4896
2023-05-04T06:00:50.041Z,5458
2023-05-04T06:01:59.208Z,5059
2023-05-04T06:03:07.410Z,5643
2023-05-04T06:04:16.560Z,5451
2023-05-04T06:05:25.742Z,5497
2023-05-04T06:06:34.926Z,5375
2023-05-04T06:07:44.095Z,6299
2023-05-04T06:08:53.311Z,6286
2023-05-04T06:10:02.425Z,6727
2023-05-04T06:11:11.598Z,5366
2023-05-04T06:12:20.773Z,5705
2023-05-04T06:13:28.960Z,6108
2023-05-04T06:14:38.229Z,6909
2023-05-04T06:15:46.430Z,6981
2023-05-04T06:16:55.567Z,6308
2023-05-04T06:18:03.759Z,6421
2023-05-04T06:19:11.884Z,7933
2023-05-04T06:20:21.106Z,4159
2023-05-04T06:21:30.222Z,7325
2023-05-04T06:22:39.419Z,7771
2023-05-04T06:23:48.560Z,6511
2023-05-04T06:24:57.735Z,6446
2023-05-04T06:27:16.177Z,5992
2023-05-04T06:28:25.426Z,6444
2023-05-04T06:29:34.541Z,6252
2023-05-04T06:30:43.759Z,6689
2023-05-04T06:31:52.789Z,7042
2023-05-04T06:34:11.306Z,6765
2023-05-04T06:35:19.461Z,7112
2023-05-04T06:36:27.575Z,6739
2023-05-04T06:37:36.835Z,7180
2023-05-04T06:38:45.845Z,7414
2023-05-04T06:39:55.074Z,7655
2023-05-04T06:41:04.313Z,7854
2023-05-04T06:42:13.363Z,7476
2023-05-04T06:43:22.524Z,6936
2023-05-04T06:44:31.699Z,7548
2023-05-04T06:45:40.884Z,7811
2023-05-04T06:46:50.061Z,7128
2023-05-04T06:47:58.233Z,7844
2023-05-04T06:49:06.412Z,7356
2023-05-04T06:50:15.602Z,7966
2023-05-04T06:51:24.769Z,6990
2023-05-04T06:52:33.941Z,6755
2023-05-04T06:53:43.101Z,8369
2023-05-04T06:54:52.278Z,6917
2023-05-04T06:56:01.480Z,7703
2023-05-04T06:57:10.635Z,7585
2023-05-04T06:58:19.801Z,7379
2023-05-04T06:59:29.001Z,7498
2023-05-04T07:00:38.141Z,7093
2023-05-04T07:04:05.659Z,7824
2023-05-04T07:05:13.854Z,7167
2023-05-04T07:06:22.061Z,7624
2023-05-04T07:07:31.219Z,7682
2023-05-04T07:08:40.392Z,6509
2023-05-04T07:09:49.548Z,10879
2023-05-04T07:10:58.789Z,7750
2023-05-04T07:12:07.971Z,7830
2023-05-04T07:13:17.139Z,7764
2023-05-04T07:14:26.310Z,7584
2023-05-04T07:15:35.472Z,7869
2023-05-04T07:16:44.659Z,7770
2023-05-04T07:17:52.845Z,7903
2023-05-04T07:19:01.034Z,7730
2023-05-04T07:20:10.227Z,7817
2023-05-04T07:21:19.371Z,8333
2023-05-04T07:22:28.553Z,8189
2023-05-04T07:24:46.900Z,8283
2023-05-04T07:25:56.103Z,8315
2023-05-04T07:27:05.264Z,7948
2023-05-04T07:28:14.413Z,9213
2023-05-04T07:29:23.581Z,7916
2023-05-04T07:30:32.752Z,8197
2023-05-04T07:32:51.103Z,8433
2023-05-04T07:33:59.306Z,8216
2023-05-04T07:35:07.473Z,8567
2023-05-04T07:36:16.688Z,9554
2023-05-04T07:37:25.817Z,8372
2023-05-04T07:38:34.986Z,8944
2023-05-04T07:39:44.183Z,8903
2023-05-04T07:40:53.332Z,8882
2023-05-04T07:43:11.680Z,8934
2023-05-04T07:44:20.852Z,8992
2023-05-04T07:45:30.026Z,8812
2023-05-04T07:46:39.187Z,8819
2023-05-04T07:47:48.370Z,8644
2023-05-04T07:48:57.537Z,9134
2023-05-04T07:50:05.722Z,8994
2023-05-04T07:51:14.898Z,8965
2023-05-04T07:52:24.079Z,8834
2023-05-04T07:53:33.249Z,8946
2023-05-04T07:54:42.410Z,9012
2023-05-04T07:55:51.584Z,8889
2023-05-04T07:57:00.766Z,8894
2023-05-04T07:58:09.941Z,8824
2023-05-04T07:59:18.150Z,9127
2023-05-04T08:00:26.314Z,8639
2023-05-04T08:01:34.547Z,8953
2023-05-04T08:02:43.677Z,9692
2023-05-04T08:03:52.848Z,9286
2023-05-04T08:05:01.042Z,9305
2023-05-04T08:06:10.214Z,9448
2023-05-04T08:08:28.544Z,9452
2023-05-04T08:09:37.723Z,9451
2023-05-04T08:10:46.901Z,9327
2023-05-04T08:11:56.125Z,9350
2023-05-04T08:13:05.241Z,9298
2023-05-04T08:14:14.418Z,9647
2023-05-04T08:15:23.583Z,10115
2023-05-04T08:16:32.768Z,9651
2023-05-04T08:17:41.952Z,10130
2023-05-04T08:18:51.122Z,9970
2023-05-04T08:19:59.340Z,9799
2023-05-04T08:21:08.504Z,10251
2023-05-04T08:22:17.634Z,10438
2023-05-04T08:24:35.977Z,10302
2023-05-04T08:25:44.309Z,10142
2023-05-04T08:26:52.379Z,10409
2023-05-04T08:28:01.538Z,10263
2023-05-04T08:29:10.718Z,10225
2023-05-04T08:30:19.887Z,10094
2023-05-04T08:31:29.056Z,10207
2023-05-04T08:32:38.253Z,9999
2023-05-04T08:33:47.408Z,10685
2023-05-04T08:34:56.557Z,11390
2023-05-04T08:36:05.785Z,11443
2023-05-04T08:37:14.997Z,11212
2023-05-04T08:38:23.182Z,10770
2023-05-04T08:39:31.298Z,11243
2023-05-04T08:40:40.478Z,11201
2023-05-04T08:41:49.641Z,10923
2023-05-04T08:42:58.808Z,11158
2023-05-04T08:44:07.983Z,11260
2023-05-04T08:45:17.160Z,10302
2023-05-04T08:46:26.334Z,10862
2023-05-04T08:47:35.506Z,11276
2023-05-04T08:48:44.676Z,10703
2023-05-04T08:49:53.872Z,9898
2023-05-04T08:51:03.037Z,10037
2023-05-04T08:52:12.198Z,10042
2023-05-04T08:53:21.353Z,10315
2023-05-04T08:54:29.579Z,9370
2023-05-04T08:55:38.754Z,9959
2023-05-04T08:56:47.896Z,9529
2023-05-04T08:57:57.067Z,9949
2023-05-04T08:59:06.262Z,9444
2023-05-04T09:00:15.422Z,9258
2023-05-04T09:01:24.597Z,9987
2023-05-04T09:02:33.768Z,10368
2023-05-04T09:03:42.935Z,10139
2023-05-04T09:04:52.093Z,9197
2023-05-04T09:06:01.285Z,9450
2023-05-04T09:07:10.436Z,10471
2023-05-04T09:08:19.616Z,10443
2023-05-04T09:09:27.808Z,8528
2023-05-04T09:10:36.004Z,10328
2023-05-04T09:11:44.190Z,10031
2023-05-04T09:12:53.361Z,12728
2023-05-04T09:14:02.528Z,10383
2023-05-04T09:15:11.713Z,10086
2023-05-04T09:16:19.892Z,10612
2023-05-04T09:17:28.076Z,9796
2023-05-04T09:18:37.286Z,10844
2023-05-04T09:20:55.602Z,11406
2023-05-04T09:22:04.840Z,9443
2023-05-04T09:24:23.123Z,10967
2023-05-04T09:26:41.463Z,10920
2023-05-04T09:27:50.628Z,11600
2023-05-04T09:28:59.814Z,11659
2023-05-04T09:30:08.989Z,10760
2023-05-04T09:31:18.145Z,10733
2023-05-04T09:32:26.349Z,10277
2023-05-04T09:33:34.523Z,10473
2023-05-04T09:34:43.705Z,10629
2023-05-04T09:35:52.880Z,10970
2023-05-04T09:37:01.076Z,10875
2023-05-04T09:38:10.240Z,11225
2023-05-04T09:39:19.418Z,11164
2023-05-04T09:40:28.586Z,11447
2023-05-04T09:41:37.755Z,12158
2023-05-04T09:42:46.927Z,11580
2023-05-04T09:43:56.109Z,12748
2023-05-04T09:45:04.299Z,12772
2023-05-04T09:46:13.478Z,12809
2023-05-04T09:47:21.657Z,11801
2023-05-04T09:48:30.830Z,11650
2023-05-04T09:49:40.001Z,11577
2023-05-04T09:51:58.347Z,11519
2023-05-04T09:53:07.518Z,11616
2023-05-04T09:54:16.699Z,12602
2023-05-04T09:55:25.889Z,9352
2023-05-04T09:56:35.036Z,10723
2023-05-04T09:57:44.204Z,11818
2023-05-04T09:58:53.386Z,12515
2023-05-04T10:00:02.547Z,13751
2023-05-04T10:01:11.722Z,11916
2023-05-04T10:02:19.910Z,16503
2023-05-04T10:03:29.076Z,9299
2023-05-04T10:04:38.259Z,15866
2023-05-04T10:05:47.424Z,12611
2023-05-04T10:06:56.600Z,12640
2023-05-04T10:08:05.764Z,15874
2023-05-04T10:09:14.944Z,11314
2023-05-04T10:10:24.119Z,14284
2023-05-04T10:11:33.288Z,12968
2023-05-04T10:12:42.451Z,14129
2023-05-04T10:13:51.624Z,11437
2023-05-04T10:15:00.800Z,13953
2023-05-04T10:16:09.979Z,11991
2023-05-04T10:17:18.158Z,11855
2023-05-04T10:18:27.345Z,11268
2023-05-04T10:19:36.500Z,12695
2023-05-04T10:20:45.684Z,10332
2023-05-04T10:21:54.857Z,13391
2023-05-04T10:23:04.027Z,10834
2023-05-04T10:24:13.198Z,13104
2023-05-04T10:25:22.363Z,14529
2023-05-04T10:26:31.536Z,13445
2023-05-04T10:27:40.711Z,14446
2023-05-04T10:28:49.941Z,14363
2023-05-04T10:29:59.064Z,12422
2023-05-04T10:31:08.296Z,13070
2023-05-04T10:32:16.422Z,13772
2023-05-04T10:33:25.589Z,13350
2023-05-04T10:34:34.766Z,14553
2023-05-04T10:35:43.940Z,15242
2023-05-04T10:36:53.175Z,14463
2023-05-04T10:38:02.285Z,14068
2023-05-04T10:39:11.455Z,14124
2023-05-04T10:40:20.634Z,13197
2023-05-04T10:41:29.800Z,13850
2023-05-04T10:42:38.974Z,13875
2023-05-04T10:43:48.139Z,15053
2023-05-04T10:44:57.304Z,14172
2023-05-04T10:46:06.491Z,13434
2023-05-04T10:47:14.695Z,13215
2023-05-04T10:48:23.854Z,12711
2023-05-04T10:49:33.093Z,12528
2023-05-04T10:50:42.301Z,12615
2023-05-04T10:51:51.475Z,12656
2023-05-04T10:53:00.597Z,12612
2023-05-04T10:54:09.718Z,12802
2023-05-04T10:55:18.891Z,13039
2023-05-04T10:57:37.235Z,13546
2023-05-04T10:59:55.574Z,12749
2023-05-04T11:01:04.747Z,13439
2023-05-04T11:02:12.941Z,13080
2023-05-04T11:03:22.121Z,12882
2023-05-04T11:04:31.276Z,15557
2023-05-04T11:05:40.445Z,14168
2023-05-04T11:06:49.626Z,15409
2023-05-04T11:07:58.787Z,15555
2023-05-04T11:09:07.962Z,15155
2023-05-04T11:10:17.138Z,16937
2023-05-04T11:11:26.319Z,13983
2023-05-04T11:12:35.479Z,15771
2023-05-04T11:13:44.647Z,14449
2023-05-04T11:14:53.821Z,15369
2023-05-04T11:16:02.994Z,16821
2023-05-04T11:17:11.191Z,14176
2023-05-04T11:18:20.366Z,14441
2023-05-04T11:19:29.532Z,15131
2023-05-04T11:20:38.707Z,14049
2023-05-04T11:21:47.921Z,14652
2023-05-04T11:22:57.117Z,14879
2023-05-04T11:24:06.328Z,15102
2023-05-04T11:25:15.468Z,13639
2023-05-04T11:26:24.658Z,13134
2023-05-04T11:27:33.733Z,13854
2023-05-04T11:28:43.035Z,13904
2023-05-04T11:29:52.121Z,14962
2023-05-04T11:31:01.257Z,15476
2023-05-04T11:32:09.609Z,14895
2023-05-04T11:33:18.844Z,13579
2023-05-04T11:34:27.048Z,14504
2023-05-04T11:35:35.230Z,15337
2023-05-04T11:36:43.417Z,15336
2023-05-04T11:37:51.609Z,14828
2023-05-04T11:39:00.803Z,14721
2023-05-04T11:40:09.955Z,13750
2023-05-04T11:41:19.143Z,13813
2023-05-04T11:42:28.303Z,14589
2023-05-04T11:43:37.471Z,14482
2023-05-04T11:44:46.639Z,15223
2023-05-04T11:45:55.821Z,13848
2023-05-04T11:47:05.150Z,14159
2023-05-04T11:49:23.454Z,13912
2023-05-04T11:50:32.624Z,14713
2023-05-04T11:51:41.800Z,12776
2023-05-04T11:52:49.869Z,14533
2023-05-04T11:53:59.044Z,13514
2023-05-04T11:55:08.218Z,14086
2023-05-04T11:57:26.556Z,13846
2023-05-04T11:58:35.750Z,13297
2023-05-04T11:59:44.893Z,13897
2023-05-04T12:00:53.101Z,13197
2023-05-04T12:02:01.284Z,14126
2023-05-04T12:03:10.457Z,13818
2023-05-04T12:04:19.652Z,14255
2023-05-04T12:05:28.814Z,14002
2023-05-04T12:06:37.975Z,14401
2023-05-04T12:07:47.133Z,13816
2023-05-04T12:08:56.322Z,14628
2023-05-04T12:10:05.496Z,14563
2023-05-04T12:11:14.668Z,13734
2023-05-04T12:12:23.847Z,13336
2023-05-04T12:13:32.038Z,12748
2023-05-04T12:14:40.225Z,12440
2023-05-04T12:15:49.464Z,14261
2023-05-04T12:16:58.582Z,14206
2023-05-04T12:18:07.728Z,14918
2023-05-04T12:19:16.908Z,14360
2023-05-04T12:20:26.091Z,14284
2023-05-04T12:21:35.262Z,14953
2023-05-04T12:22:44.471Z,14824
2023-05-04T12:23:53.597Z,15874
2023-05-04T12:25:02.889Z,16104
2023-05-04T12:26:11.938Z,15796
2023-05-04T12:27:21.210Z,15401
2023-05-04T12:28:30.279Z,15234
2023-05-04T12:29:38.486Z,15692
2023-05-04T12:30:47.644Z,15151
2023-05-04T12:31:56.815Z,17386
2023-05-04T12:33:05.990Z,17761
2023-05-04T12:34:15.153Z,17671
2023-05-04T12:35:24.332Z,19211
2023-05-04T12:36:33.506Z,18776
2023-05-04T12:37:41.712Z,17599
2023-05-04T12:38:49.887Z,15835
2023-05-04T12:39:59.060Z,19578
2023-05-04T12:41:07.254Z,30155
2023-05-04T12:42:16.432Z,27290
2023-05-04T12:43:24.622Z,26606
2023-05-04T12:44:33.789Z,27572
2023-05-04T12:45:42.962Z,25318
2023-05-04T12:46:52.137Z,64041
2023-05-04T12:48:01.309Z,45146
2023-05-04T12:49:10.488Z,27641
2023-05-04T12:51:28.948Z,33918
2023-05-04T12:52:38.067Z,33353
2023-05-04T12:53:47.278Z,30984
2023-05-04T12:54:56.337Z,30198
2023-05-04T12:56:05.557Z,27367
2023-05-04T12:57:14.676Z,31441
2023-05-04T12:58:22.866Z,32075
2023-05-04T12:59:32.047Z,24549
2023-05-04T13:00:41.209Z,28648
2023-05-04T13:01:50.389Z,34370
2023-05-04T13:02:59.565Z,26392
2023-05-04T13:04:08.729Z,34174
2023-05-04T13:05:17.898Z,33282
2023-05-04T13:06:27.077Z,31269
2023-05-04T13:07:36.249Z,33313
2023-05-04T13:08:45.417Z,36604
2023-05-04T13:09:54.595Z,35981
2023-05-04T13:11:03.761Z,34590
2023-05-04T13:12:12.948Z,29806
2023-05-04T13:13:22.116Z,27830
2023-05-04T13:14:30.304Z,32953
2023-05-04T13:15:39.465Z,33387
2023-05-04T13:16:48.648Z,32485
2023-05-04T13:17:57.820Z,29049
2023-05-04T13:19:07.005Z,26661
2023-05-04T13:20:16.169Z,31697
2023-05-04T13:21:25.379Z,36986
2023-05-04T13:22:34.522Z,12153
2023-05-04T13:23:43.674Z,18769
2023-05-04T13:26:02.038Z,49716
2023-05-04T13:27:11.204Z,34189
2023-05-04T13:28:19.393Z,34033
2023-05-04T13:29:28.572Z,34514
2023-05-04T13:30:37.749Z,31530
2023-05-04T13:31:46.915Z,29031
2023-05-04T13:32:55.105Z,29050
2023-05-04T13:34:04.283Z,28221
2023-05-04T13:35:13.470Z,28679
2023-05-04T13:36:22.633Z,26550
2023-05-04T13:37:30.832Z,13255
2023-05-04T13:38:39.023Z,34418
2023-05-04T13:39:48.183Z,404
2023-05-04T13:40:57.363Z,45714
2023-05-04T13:42:06.532Z,43347
2023-05-04T13:43:15.707Z,46542
2023-05-04T13:44:24.888Z,47977
2023-05-04T13:45:34.059Z,39265
2023-05-04T13:46:43.245Z,41992
2023-05-04T13:47:52.405Z,41952
2023-05-04T13:49:01.565Z,38444
2023-05-04T13:50:10.746Z,37913
2023-05-04T13:51:19.926Z,35015
2023-05-04T13:52:29.092Z,33452
2023-05-04T13:53:37.293Z,45147
2023-05-04T13:54:46.458Z,43455
2023-05-04T13:55:55.629Z,39872
2023-05-04T13:57:04.796Z,46608
2023-05-04T13:58:13.998Z,41889
2023-05-04T13:59:23.139Z,23883
2023-05-04T14:00:32.313Z,41306
2023-05-04T14:01:41.493Z,51641
2023-05-04T14:02:49.691Z,45209
2023-05-04T14:03:57.882Z,39529
2023-05-04T14:05:06.081Z,28123
2023-05-04T14:06:14.275Z,39356
2023-05-04T14:07:23.428Z,60027
2023-05-04T14:08:32.627Z,46423
2023-05-04T14:09:41.786Z,31857
2023-05-04T14:10:50.951Z,39748
2023-05-04T14:12:00.125Z,41444
2023-05-04T14:13:09.294Z,35959
2023-05-04T14:14:18.464Z,49502
2023-05-04T14:15:27.630Z,54929
2023-05-04T14:16:36.802Z,35548
2023-05-04T14:17:45.977Z,46784
2023-05-04T14:18:55.166Z,48097
2023-05-04T14:21:13.511Z,48066
2023-05-04T14:22:21.691Z,38493
2023-05-04T14:23:30.863Z,37528
2023-05-04T14:24:40.062Z,51752
2023-05-04T14:25:49.201Z,39577
2023-05-04T14:26:58.386Z,39290
2023-05-04T14:28:07.560Z,42473
2023-05-04T14:29:16.729Z,39669
2023-05-04T14:30:25.904Z,34886
2023-05-04T14:31:34.107Z,45868
2023-05-04T14:32:42.308Z,14427
2023-05-04T14:33:51.472Z,64473
2023-05-04T14:35:00.638Z,55134
2023-05-04T14:36:09.818Z,6281
2023-05-04T14:37:18.998Z,45473
2023-05-04T14:38:28.158Z,341
2023-05-04T14:39:37.359Z,46437
2023-05-04T14:40:46.496Z,20988
2023-05-04T14:41:55.679Z,21214
2023-05-04T14:43:04.874Z,15058
2023-05-04T14:44:14.031Z,56597
2023-05-04T14:45:23.195Z,46837
2023-05-04T14:46:32.366Z,19623
2023-05-04T14:47:40.550Z,15330
2023-05-04T14:48:49.735Z,53945
2023-05-04T14:49:58.901Z,18204
2023-05-04T14:51:08.078Z,17003
2023-05-04T14:52:17.268Z,53519
2023-05-04T14:53:26.450Z,17484
2023-05-04T14:54:35.576Z,18132
2023-05-04T14:55:43.767Z,15891
2023-05-04T14:56:51.967Z,62129
2023-05-04T14:58:00.158Z,16816
2023-05-04T14:59:08.374Z,18899
2023-05-04T15:00:17.583Z,18132
2023-05-04T15:01:26.702Z,20143
2023-05-04T15:02:35.858Z,16524
2023-05-04T15:03:45.035Z,13816
2023-05-04T15:04:54.210Z,61690
2023-05-04T15:06:03.387Z,62917
2023-05-04T15:07:12.556Z,7039
2023-05-04T15:08:21.734Z,57613
2023-05-04T15:09:30.907Z,58717
2023-05-04T15:10:40.088Z,4819
2023-05-04T15:11:49.275Z,2475
2023-05-04T15:12:58.430Z,6990
2023-05-04T15:14:06.608Z,24435
2023-05-04T15:15:15.789Z,17844
2023-05-04T15:16:24.991Z,12137
2023-05-04T15:17:34.133Z,55495
2023-05-04T15:18:43.313Z,53123
2023-05-04T15:19:52.494Z,14790
2023-05-04T15:21:01.652Z,58358
2023-05-04T15:22:09.845Z,62030
2023-05-04T15:23:18.040Z,60657
2023-05-04T15:24:27.202Z,48772
2023-05-04T15:25:36.370Z,62961
2023-05-04T15:26:44.582Z,17791
2023-05-04T15:27:52.759Z,20114
2023-05-04T15:29:01.966Z,4289
2023-05-04T15:30:11.110Z,41942
2023-05-04T15:31:20.279Z,41762
2023-05-04T15:32:29.493Z,56721
2023-05-04T15:33:38.749Z,38800
2023-05-04T15:34:47.806Z,38067
2023-05-04T15:35:56.984Z,25764
2023-05-04T15:37:06.284Z,21417
2023-05-04T15:38:15.394Z,23943
2023-05-04T15:39:24.566Z,21684
2023-05-04T15:40:33.767Z,21249
2023-05-04T15:41:42.840Z,20521
2023-05-04T15:42:51.022Z,24503
2023-05-04T15:44:00.217Z,22403
2023-05-04T15:45:09.382Z,27298
2023-05-04T15:46:18.549Z,23600
2023-05-04T15:48:37.096Z,24701
2023-05-04T15:49:46.312Z,24166
2023-05-04T15:50:55.324Z,23758
2023-05-04T15:52:03.538Z,2632
2023-05-04T15:53:11.691Z,15822
2023-05-04T15:54:20.869Z,9865
2023-05-04T15:55:30.078Z,44081
2023-05-04T15:56:39.301Z,18520
2023-05-04T15:57:48.317Z,58612
2023-05-04T16:00:06.668Z,57393
2023-05-04T16:01:15.883Z,39050
2023-05-04T16:02:25.171Z,50392
2023-05-04T16:03:34.315Z,52752
2023-05-04T16:04:43.548Z,7779
2023-05-04T16:05:52.625Z,51585
2023-05-04T16:07:01.773Z,53517
2023-05-04T16:08:09.902Z,18101